Página principal
METAR-TAF:

METAR-TAF

Aeroportos :

Aeroporto Internacional Tolmachevo

Novosibirsk, Rússia

latitude: 55-01N, longitude: 082-38E, altura: 111 m

Observação actual do tempo

O boletim foi feito há 21 minutos, às 02:00 UTC
Vento 10 kt de oes-sudoeste
Temperatura -3°C
Humidade 63%
Pressão 1028 hPa
Visibilidade 10 km ou mais
sem nuvens abaixo de 1500 metros e sem cumulonimbus

METAR: UNNT 190200Z 24005MPS CAVOK M03/M09 Q1028 R25/710160 R34/910160 NOSIG RMK QFE761/1015

Hora: 09:21 (02:21 UTC)

Previsão

O boletim foi feito há 3 horas e 21 minutos, às 23:00 UTC
Previsão válida de 19 às 00 UTC a 19 às 24 UTC
Vento 14 kt de oes-sudoeste com rajadas de 27 kt
Visibilidade 10 km ou mais
sem nuvens abaixo de 1500 metros e sem cumulonimbus
Temporariamente
de 19 às 00 UTC a 19 às 06 UTC
Vento 6 kt de su-sudoeste com rajadas de 16 kt
Tornando-se
de 19 às 11 UTC a 19 às 13 UTC
Vento 6 kt de norte

TAF: UNNT 182300Z 1900/1924 25007G14MPS CAVOK TEMPO 1900/1906 20003G08MPS BECMG 1911/1913 35003MPS

Observações e previsões do tempo de mais de 4000 aeroportos (mensagens METAR e TAF).

As estações disponíveis são os pontos amarelos e vermelhos sobre o mapa.

Mova o rato sobre o mapa para ver o nome da estação.

Depois clique no ponto para visualizar as observações e previsões meteorológicas.

Para alterar o mapa : clique nos botões verdes com uma cruz preta para aumentar o zoom; no botão verde com uma pitada de zoom; ou nas setas verdes para mapas adjacentes.


METAR-TAF: